Time;durP1;ratioP1;P1;durP2;ratioP2;P2;SDS_P1;SDS_P2;PMS_P1;PMS_P2;Temp;Humidity;BMP_temperature;BMP_pressure;BME280_temperature;BME280_humidity;BME280_pressure;Samples;Min_cycle;Max_cycle;Signal;HPM_P1;HPM_P2
2021/11/18 00:00:16;;;;;;;9.48;5.68;;;;;;;;;;4899312;29;20051;-84
2021/11/18 00:02:44;;;;;;;8.88;5.28;;;;;;;;;;4901500;29;20039;-85
2021/11/18 00:05:12;;;;;;;8.73;5.15;;;;;;;;;;4904893;29;20032;-85
2021/11/18 00:07:41;;;;;;;9.38;5.25;;;;;;;;;;4912913;29;20526;-85
2021/11/18 00:10:08;;;;;;;7.03;4.68;;;;;;;;;;4919476;29;20029;-85
2021/11/18 00:12:34;;;;;;;8.40;4.93;;;;;;;;;;4916303;29;20016;-86
2021/11/18 00:15:00;;;;;;;8.02;4.90;;;;;;;;;;4915780;29;20067;-85
2021/11/18 00:17:26;;;;;;;8.20;4.50;;;;;;;;;;4927525;29;20063;-85
2021/11/18 00:19:52;;;;;;;7.18;3.90;;;;;;;;;;4923571;29;20036;-84
2021/11/18 00:22:18;;;;;;;7.43;3.78;;;;;;;;;;4909877;29;20084;-84
2021/11/18 00:24:44;;;;;;;6.85;3.55;;;;;;;;;;4921173;29;20032;-84
2021/11/18 00:27:10;;;;;;;7.15;4.07;;;;;;;;;;4926548;29;20020;-86
2021/11/18 00:29:36;;;;;;;6.25;3.45;;;;;;;;;;4922200;29;20034;-85
2021/11/18 00:32:02;;;;;;;7.05;4.10;;;;;;;;;;4933827;29;20024;-86
2021/11/18 00:34:28;;;;;;;6.32;3.50;;;;;;;;;;4926238;29;20676;-81
2021/11/18 00:36:54;;;;;;;7.20;3.95;;;;;;;;;;4924282;29;20039;-84
2021/11/18 00:39:20;;;;;;;7.13;3.88;;;;;;;;;;4917791;29;20115;-83
2021/11/18 00:41:46;;;;;;;6.82;3.60;;;;;;;;;;4924122;29;20028;-84
2021/11/18 00:44:12;;;;;;;7.18;4.00;;;;;;;;;;4918771;29;20024;-84
2021/11/18 00:46:38;;;;;;;8.40;4.47;;;;;;;;;;4926224;29;20039;-84
2021/11/18 00:49:06;;;;;;;8.77;5.00;;;;;;;;;;4937771;29;20034;-83
2021/11/18 00:51:32;;;;;;;8.63;4.93;;;;;;;;;;4929941;29;20048;-84
2021/11/18 00:53:59;;;;;;;8.65;4.88;;;;;;;;;;4908264;29;20029;-83
2021/11/18 00:56:25;;;;;;;8.00;5.07;;;;;;;;;;4922996;29;20035;-79
2021/11/18 00:58:52;;;;;;;8.20;4.63;;;;;;;;;;4920343;29;20123;-85
2021/11/18 01:01:19;;;;;;;8.43;4.68;;;;;;;;;;4916869;29;20107;-83
2021/11/18 01:03:46;;;;;;;7.90;4.80;;;;;;;;;;4928449;29;20040;-84
2021/11/18 01:06:12;;;;;;;7.95;5.32;;;;;;;;;;4933139;29;20036;-85
2021/11/18 01:08:38;;;;;;;8.82;4.93;;;;;;;;;;4920699;29;20096;-84
2021/11/18 01:11:09;;;;;;;8.50;5.00;;;;;;;;;;4908547;29;20423;-85
2021/11/18 01:13:35;;;;;;;8.07;4.25;;;;;;;;;;4916215;29;20024;-85
2021/11/18 01:16:03;;;;;;;8.18;4.53;;;;;;;;;;4921273;29;20037;-86
2021/11/18 01:18:29;;;;;;;9.15;4.78;;;;;;;;;;4916406;29;20032;-83
2021/11/18 01:20:56;;;;;;;8.02;4.40;;;;;;;;;;4921057;29;20036;-84
2021/11/18 01:23:25;;;;;;;8.23;4.40;;;;;;;;;;4907565;29;20676;-85
2021/11/18 01:25:51;;;;;;;8.00;5.32;;;;;;;;;;4917148;29;20052;-82
2021/11/18 01:28:18;;;;;;;8.63;5.07;;;;;;;;;;4931298;29;20020;-82
2021/11/18 01:30:44;;;;;;;9.60;5.43;;;;;;;;;;4936530;29;20043;-83
2021/11/18 01:33:12;;;;;;;8.35;4.63;;;;;;;;;;4935191;29;20016;-82
2021/11/18 01:35:39;;;;;;;8.68;5.05;;;;;;;;;;4908385;29;20093;-82
2021/11/18 01:38:05;;;;;;;8.10;5.32;;;;;;;;;;4915606;29;20061;-80
2021/11/18 01:40:34;;;;;;;9.20;4.72;;;;;;;;;;4920678;29;20020;-83
2021/11/18 01:43:00;;;;;;;7.97;5.15;;;;;;;;;;4917800;29;20523;-83
2021/11/18 01:45:27;;;;;;;9.27;5.38;;;;;;;;;;4915329;29;20087;-85
2021/11/18 01:47:53;;;;;;;8.50;5.05;;;;;;;;;;4902853;29;20404;-81
2021/11/18 01:50:21;;;;;;;8.73;5.45;;;;;;;;;;4904384;29;20077;-83
2021/11/18 01:52:48;;;;;;;10.38;5.93;;;;;;;;;;4901410;29;20080;-83
2021/11/18 01:55:15;;;;;;;8.27;4.57;;;;;;;;;;4907675;29;20035;-83
2021/11/18 01:57:42;;;;;;;8.93;5.65;;;;;;;;;;4910387;29;20832;-82
2021/11/18 02:00:10;;;;;;;7.72;5.10;;;;;;;;;;4910562;29;20036;-83
2021/11/18 02:02:36;;;;;;;9.65;5.65;;;;;;;;;;4920167;29;20088;-83
2021/11/18 02:05:08;;;;;;;9.18;5.75;;;;;;;;;;4922038;29;20076;-84
2021/11/18 02:07:34;;;;;;;9.65;6.00;;;;;;;;;;4921337;29;20043;-82
2021/11/18 02:10:00;;;;;;;11.00;7.10;;;;;;;;;;4913484;29;20024;-84
2021/11/18 02:12:28;;;;;;;9.57;5.90;;;;;;;;;;4905730;29;20028;-80
2021/11/18 02:14:54;;;;;;;9.63;6.38;;;;;;;;;;4919007;29;20043;-83
2021/11/18 02:17:22;;;;;;;10.23;6.75;;;;;;;;;;4913613;29;20119;-82
2021/11/18 02:20:08;;;;;;;10.98;6.72;;;;;;;;;;4905897;29;20036;-84
2021/11/18 02:22:37;;;;;;;11.18;7.95;;;;;;;;;;4915839;29;20036;-83
2021/11/18 02:25:04;;;;;;;10.95;7.32;;;;;;;;;;4917103;29;20028;-83
2021/11/18 02:27:32;;;;;;;11.13;7.35;;;;;;;;;;4939030;29;20030;-81
2021/11/18 02:29:59;;;;;;;10.32;7.03;;;;;;;;;;4922087;29;20132;-83
2021/11/18 02:32:31;;;;;;;11.35;6.50;;;;;;;;;;4917599;29;20052;-84
2021/11/18 02:34:57;;;;;;;11.98;7.32;;;;;;;;;;4899700;29;20032;-84
2021/11/18 02:37:24;;;;;;;11.73;7.47;;;;;;;;;;4902789;29;20032;-84
2021/11/18 02:39:50;;;;;;;10.60;6.65;;;;;;;;;;4914600;29;20399;-81
2021/11/18 02:42:16;;;;;;;11.68;7.68;;;;;;;;;;4918214;29;20032;-83
2021/11/18 02:44:43;;;;;;;10.43;6.88;;;;;;;;;;4917697;29;20035;-84
2021/11/18 02:47:12;;;;;;;11.25;7.38;;;;;;;;;;4923641;29;20110;-82
2021/11/18 02:49:46;;;;;;;11.43;7.25;;;;;;;;;;4916791;29;20025;-83
2021/11/18 02:52:13;;;;;;;9.98;6.90;;;;;;;;;;4900674;29;20080;-82
2021/11/18 02:54:40;;;;;;;10.13;7.32;;;;;;;;;;4911711;29;20032;-80
2021/11/18 02:57:07;;;;;;;12.00;7.38;;;;;;;;;;4917786;29;20020;-84
2021/11/18 02:59:33;;;;;;;10.82;6.93;;;;;;;;;;4913806;29;20020;-84
2021/11/18 03:01:59;;;;;;;10.32;7.10;;;;;;;;;;4905139;29;20033;-83
2021/11/18 03:04:25;;;;;;;10.60;7.68;;;;;;;;;;4911057;29;20123;-81
2021/11/18 03:06:53;;;;;;;12.70;7.53;;;;;;;;;;4900608;29;20882;-85
2021/11/18 03:09:19;;;;;;;15.40;7.65;;;;;;;;;;4909783;29;20029;-82
2021/11/18 03:11:45;;;;;;;11.55;7.57;;;;;;;;;;4917266;29;20024;-82
2021/11/18 03:14:11;;;;;;;11.20;7.53;;;;;;;;;;4907213;29;20028;-84
2021/11/18 03:16:37;;;;;;;11.77;8.18;;;;;;;;;;4911276;29;20044;-85
2021/11/18 03:19:03;;;;;;;10.68;7.53;;;;;;;;;;4905520;29;20056;-84
2021/11/18 03:21:30;;;;;;;11.10;7.32;;;;;;;;;;4906117;29;20561;-83
2021/11/18 03:23:57;;;;;;;11.35;8.27;;;;;;;;;;4904544;29;20028;-82
2021/11/18 03:26:26;;;;;;;9.98;7.00;;;;;;;;;;4915056;29;20036;-82
2021/11/18 03:28:52;;;;;;;12.68;7.80;;;;;;;;;;4915157;29;20028;-83
2021/11/18 03:31:19;;;;;;;12.93;8.25;;;;;;;;;;4920053;29;20028;-83
2021/11/18 03:33:53;;;;;;;11.60;8.05;;;;;;;;;;4902238;29;20025;-83
2021/11/18 03:36:20;;;;;;;11.52;8.25;;;;;;;;;;4913230;29;20712;-84
2021/11/18 03:38:47;;;;;;;13.48;7.88;;;;;;;;;;4905414;29;20020;-84
2021/11/18 03:41:13;;;;;;;13.00;7.68;;;;;;;;;;4920129;29;20051;-82
2021/11/18 03:43:41;;;;;;;12.70;8.30;;;;;;;;;;4932150;29;20474;-82
2021/11/18 03:46:08;;;;;;;12.05;7.38;;;;;;;;;;4915220;29;20399;-83
2021/11/18 03:48:34;;;;;;;11.10;7.50;;;;;;;;;;4911664;29;20080;-84
2021/11/18 03:51:02;;;;;;;12.43;7.90;;;;;;;;;;4913471;29;20406;-83
2021/11/18 03:53:28;;;;;;;12.02;7.53;;;;;;;;;;4901516;29;20137;-82
2021/11/18 03:55:55;;;;;;;11.65;7.70;;;;;;;;;;4917746;29;20031;-82
2021/11/18 03:58:21;;;;;;;12.13;7.72;;;;;;;;;;4916741;29;20044;-84
2021/11/18 04:00:47;;;;;;;11.02;7.47;;;;;;;;;;4915643;29;20079;-82
2021/11/18 04:03:14;;;;;;;11.32;7.90;;;;;;;;;;4918776;29;20043;-81
2021/11/18 04:05:40;;;;;;;12.98;8.60;;;;;;;;;;4917338;29;20024;-82
2021/11/18 04:08:07;;;;;;;10.55;7.15;;;;;;;;;;4925964;29;20032;-80
2021/11/18 04:10:34;;;;;;;12.02;7.95;;;;;;;;;;4919641;29;20032;-84
2021/11/18 04:13:00;;;;;;;10.77;7.57;;;;;;;;;;4909055;29;20055;-81
2021/11/18 04:15:27;;;;;;;11.68;8.15;;;;;;;;;;4904330;29;20112;-84
2021/11/18 04:17:53;;;;;;;13.50;9.30;;;;;;;;;;4898847;29;20107;-83
2021/11/18 04:20:19;;;;;;;11.43;7.85;;;;;;;;;;4911631;29;20033;-85
2021/11/18 04:22:46;;;;;;;11.68;8.05;;;;;;;;;;4919300;29;20028;-83
2021/11/18 04:25:13;;;;;;;12.43;8.23;;;;;;;;;;4919659;29;20931;-84
2021/11/18 04:27:41;;;;;;;13.75;8.35;;;;;;;;;;4917756;29;20020;-84
2021/11/18 04:30:09;;;;;;;12.15;8.05;;;;;;;;;;4911967;29;20059;-83
2021/11/18 04:32:35;;;;;;;11.20;8.00;;;;;;;;;;4920941;29;20468;-84
2021/11/18 04:35:01;;;;;;;12.75;9.20;;;;;;;;;;4918896;29;20059;-83
2021/11/18 04:37:27;;;;;;;13.27;9.32;;;;;;;;;;4901439;29;20032;-84
2021/11/18 04:39:53;;;;;;;14.57;10.40;;;;;;;;;;4900691;29;20104;-84
2021/11/18 04:42:20;;;;;;;12.82;9.40;;;;;;;;;;4899718;29;20037;-85
2021/11/18 04:44:47;;;;;;;13.32;9.27;;;;;;;;;;4898018;29;20065;-84
2021/11/18 04:47:13;;;;;;;13.48;8.55;;;;;;;;;;4907990;29;20464;-83
2021/11/18 04:49:41;;;;;;;13.02;8.80;;;;;;;;;;4913321;29;20396;-82
2021/11/18 04:52:07;;;;;;;13.43;8.55;;;;;;;;;;4914350;29;20048;-81
2021/11/18 04:54:34;;;;;;;13.30;8.90;;;;;;;;;;4911003;29;20024;-80
2021/11/18 04:57:00;;;;;;;14.52;8.80;;;;;;;;;;4912864;29;20118;-82
2021/11/18 04:59:26;;;;;;;13.85;9.10;;;;;;;;;;4912142;29;20406;-82
2021/11/18 05:01:52;;;;;;;13.82;9.55;;;;;;;;;;4921259;29;20024;-82
2021/11/18 05:04:18;;;;;;;13.23;9.07;;;;;;;;;;4911674;29;20037;-82
2021/11/18 05:06:45;;;;;;;12.75;8.38;;;;;;;;;;4905825;29;20028;-84
2021/11/18 05:09:11;;;;;;;13.45;9.10;;;;;;;;;;4910317;29;20139;-82
2021/11/18 05:11:38;;;;;;;14.77;9.27;;;;;;;;;;4924081;29;20028;-82
2021/11/18 05:14:04;;;;;;;14.52;9.10;;;;;;;;;;4922350;29;20032;-83
2021/11/18 05:16:30;;;;;;;13.77;9.00;;;;;;;;;;4921795;29;20035;-83
2021/11/18 05:18:57;;;;;;;15.93;9.68;;;;;;;;;;4917501;29;20075;-83
2021/11/18 05:21:25;;;;;;;13.27;9.13;;;;;;;;;;4923249;29;20028;-81
2021/11/18 05:23:51;;;;;;;13.95;8.43;;;;;;;;;;4921955;29;20054;-84
2021/11/18 05:26:19;;;;;;;15.95;9.82;;;;;;;;;;4921729;29;20028;-82
2021/11/18 05:28:45;;;;;;;14.05;9.20;;;;;;;;;;4923189;29;20025;-82
2021/11/18 05:31:12;;;;;;;14.15;8.85;;;;;;;;;;4920194;29;20028;-81
2021/11/18 05:33:38;;;;;;;13.57;8.48;;;;;;;;;;4926235;29;20048;-84
2021/11/18 05:36:04;;;;;;;14.88;8.82;;;;;;;;;;4913856;29;20035;-82
2021/11/18 05:38:30;;;;;;;14.88;8.75;;;;;;;;;;4923161;29;20031;-82
2021/11/18 05:40:57;;;;;;;12.60;8.18;;;;;;;;;;4931937;29;20028;-83
2021/11/18 05:43:24;;;;;;;14.30;9.65;;;;;;;;;;4907460;29;20052;-83
2021/11/18 05:45:50;;;;;;;13.93;9.57;;;;;;;;;;4911693;29;20439;-82
2021/11/18 05:48:17;;;;;;;16.02;9.60;;;;;;;;;;4921039;29;20119;-83
2021/11/18 05:50:46;;;;;;;15.00;9.45;;;;;;;;;;4917745;29;20048;-82
2021/11/18 05:53:13;;;;;;;15.55;9.77;;;;;;;;;;4906188;29;20102;-83
2021/11/18 05:55:39;;;;;;;15.05;9.68;;;;;;;;;;4908748;29;20048;-82
2021/11/18 05:58:06;;;;;;;15.70;9.75;;;;;;;;;;4916253;29;20036;-82
2021/11/18 06:00:33;;;;;;;16.38;10.57;;;;;;;;;;4919438;29;20043;-82
2021/11/18 06:02:59;;;;;;;13.93;9.57;;;;;;;;;;4919870;29;20510;-82
2021/11/18 06:05:26;;;;;;;15.85;9.95;;;;;;;;;;4918708;29;20039;-82
2021/11/18 06:07:53;;;;;;;15.23;9.23;;;;;;;;;;4921213;29;20103;-84
2021/11/18 06:10:19;;;;;;;14.77;9.25;;;;;;;;;;4925551;29;20047;-82
2021/11/18 06:12:46;;;;;;;13.70;9.05;;;;;;;;;;4940614;29;20034;-83
2021/11/18 06:15:12;;;;;;;14.85;9.10;;;;;;;;;;4916907;29;20133;-81
2021/11/18 06:17:38;;;;;;;16.15;10.15;;;;;;;;;;4911889;29;20084;-79
2021/11/18 06:20:06;;;;;;;15.10;9.82;;;;;;;;;;4934696;29;20096;-82
2021/11/18 06:22:32;;;;;;;16.52;10.55;;;;;;;;;;4922277;29;20028;-83
2021/11/18 06:24:58;;;;;;;14.52;9.25;;;;;;;;;;4923200;29;20040;-82
2021/11/18 06:27:24;;;;;;;14.90;9.27;;;;;;;;;;4923778;29;20028;-82
2021/11/18 06:29:50;;;;;;;17.17;9.75;;;;;;;;;;4922155;29;20074;-83
2021/11/18 06:32:17;;;;;;;14.90;10.43;;;;;;;;;;4925495;29;20046;-81
2021/11/18 06:34:43;;;;;;;17.20;10.30;;;;;;;;;;4923316;29;20030;-82
2021/11/18 06:37:10;;;;;;;16.85;10.75;;;;;;;;;;4923150;29;20084;-82
2021/11/18 06:39:37;;;;;;;15.20;9.98;;;;;;;;;;4922637;29;20487;-82
2021/11/18 06:42:08;;;;;;;14.40;10.05;;;;;;;;;;4923841;29;20060;-84
2021/11/18 06:44:34;;;;;;;16.02;10.05;;;;;;;;;;4922308;29;20095;-82
2021/11/18 06:47:00;;;;;;;15.85;9.80;;;;;;;;;;4923905;29;20040;-82
2021/11/18 06:49:26;;;;;;;15.93;9.85;;;;;;;;;;4922615;29;20042;-81
2021/11/18 06:51:53;;;;;;;17.00;11.27;;;;;;;;;;4923793;29;20087;-82
2021/11/18 06:54:19;;;;;;;17.10;11.45;;;;;;;;;;4924676;29;20808;-82
2021/11/18 06:56:45;;;;;;;16.02;10.63;;;;;;;;;;4923028;29;20518;-82
2021/11/18 06:59:12;;;;;;;14.57;10.02;;;;;;;;;;4921697;29;20056;-82
2021/11/18 07:01:38;;;;;;;15.25;9.73;;;;;;;;;;4941782;29;20051;-81
2021/11/18 07:04:08;;;;;;;13.10;9.30;;;;;;;;;;4942792;29;20389;-82
2021/11/18 07:06:35;;;;;;;15.68;10.15;;;;;;;;;;4941852;29;20492;-82
2021/11/18 07:09:03;;;;;;;14.90;9.63;;;;;;;;;;4942088;29;20076;-83
2021/11/18 07:11:29;;;;;;;14.68;9.75;;;;;;;;;;4925017;29;20020;-82
2021/11/18 07:13:55;;;;;;;14.02;9.63;;;;;;;;;;4923157;29;20454;-82
2021/11/18 07:16:22;;;;;;;14.25;9.40;;;;;;;;;;4923142;29;20032;-82
2021/11/18 07:18:48;;;;;;;14.82;9.63;;;;;;;;;;4921671;29;20059;-82
2021/11/18 07:21:15;;;;;;;14.30;9.18;;;;;;;;;;4938907;29;20039;-82
2021/11/18 07:23:41;;;;;;;15.73;10.45;;;;;;;;;;4942636;29;20031;-83
2021/11/18 07:26:08;;;;;;;14.57;10.02;;;;;;;;;;4924564;29;20049;-81
2021/11/18 07:28:35;;;;;;;14.93;9.90;;;;;;;;;;4923393;29;20031;-82
2021/11/18 07:31:01;;;;;;;14.05;8.75;;;;;;;;;;4923201;29;20051;-83
2021/11/18 07:33:28;;;;;;;16.13;9.48;;;;;;;;;;4922930;29;20024;-83
2021/11/18 07:35:54;;;;;;;15.05;9.77;;;;;;;;;;4923414;29;20032;-82
2021/11/18 07:38:22;;;;;;;16.73;9.77;;;;;;;;;;4922579;29;20490;-82
2021/11/18 07:40:48;;;;;;;14.25;9.13;;;;;;;;;;4921712;29;20067;-82
2021/11/18 07:43:19;;;;;;;15.85;10.15;;;;;;;;;;4937278;29;20502;-82
2021/11/18 07:45:46;;;;;;;15.52;9.43;;;;;;;;;;4942590;29;20602;-80
2021/11/18 07:48:12;;;;;;;16.17;9.82;;;;;;;;;;4942139;29;20036;-83
2021/11/18 07:50:38;;;;;;;13.60;8.32;;;;;;;;;;4940396;29;20143;-83
2021/11/18 07:53:04;;;;;;;15.18;9.32;;;;;;;;;;4929069;29;20202;-82
2021/11/18 07:55:30;;;;;;;16.40;10.15;;;;;;;;;;4906116;29;20096;-82
2021/11/18 07:57:56;;;;;;;13.35;8.98;;;;;;;;;;4903708;29;20128;-83
2021/11/18 08:00:23;;;;;;;18.40;10.65;;;;;;;;;;4903488;29;20071;-85
2021/11/18 08:02:49;;;;;;;15.05;8.95;;;;;;;;;;4903952;29;20032;-84
2021/11/18 08:05:15;;;;;;;12.55;8.05;;;;;;;;;;4915868;29;20083;-83
2021/11/18 08:07:41;;;;;;;16.85;9.65;;;;;;;;;;4922417;29;20055;-83
2021/11/18 08:10:08;;;;;;;15.25;10.18;;;;;;;;;;4922049;29;20475;-82
2021/11/18 08:12:36;;;;;;;14.68;9.43;;;;;;;;;;4922604;29;20028;-83
2021/11/18 08:15:07;;;;;;;15.40;9.95;;;;;;;;;;4922676;29;20056;-82
2021/11/18 08:17:33;;;;;;;14.82;9.02;;;;;;;;;;4922326;29;20482;-82
2021/11/18 08:20:00;;;;;;;17.40;10.13;;;;;;;;;;4919275;29;20079;-83
2021/11/18 08:22:26;;;;;;;15.57;10.10;;;;;;;;;;4921007;29;20063;-84
2021/11/18 08:24:52;;;;;;;15.40;9.55;;;;;;;;;;4929196;29;20028;-83
2021/11/18 08:27:18;;;;;;;15.00;10.35;;;;;;;;;;4941670;29;20041;-82
2021/11/18 08:29:44;;;;;;;14.75;9.25;;;;;;;;;;4940044;29;20147;-83
2021/11/18 08:32:10;;;;;;;16.17;9.82;;;;;;;;;;4940964;29;20024;-82
2021/11/18 08:34:37;;;;;;;17.77;10.27;;;;;;;;;;4937983;29;20028;-81
2021/11/18 08:37:03;;;;;;;14.80;9.55;;;;;;;;;;4944300;29;20031;-83
2021/11/18 08:39:30;;;;;;;16.70;11.23;;;;;;;;;;4944949;29;20039;-85
2021/11/18 08:41:58;;;;;;;14.45;9.90;;;;;;;;;;4943715;29;20028;-82
2021/11/18 08:44:24;;;;;;;16.40;10.30;;;;;;;;;;4944982;29;20035;-82
2021/11/18 08:46:51;;;;;;;14.93;9.95;;;;;;;;;;4937230;29;20094;-84
2021/11/18 08:49:17;;;;;;;14.80;9.60;;;;;;;;;;4929429;29;20028;-81
2021/11/18 08:51:44;;;;;;;14.02;8.65;;;;;;;;;;4918520;29;20112;-81
2021/11/18 08:54:12;;;;;;;16.10;9.50;;;;;;;;;;4948096;29;20474;-79
2021/11/18 08:56:38;;;;;;;15.35;9.25;;;;;;;;;;4956221;29;20095;-80
2021/11/18 08:59:06;;;;;;;13.27;9.15;;;;;;;;;;4925294;29;20051;-82
2021/11/18 09:01:36;;;;;;;17.08;9.65;;;;;;;;;;4924446;29;20583;-82
2021/11/18 09:04:04;;;;;;;15.88;9.57;;;;;;;;;;4924816;29;20047;-82
2021/11/18 09:06:30;;;;;;;18.58;9.52;;;;;;;;;;4924105;29;20025;-84
2021/11/18 09:08:56;;;;;;;13.98;9.32;;;;;;;;;;4923425;29;20032;-82
2021/11/18 09:11:23;;;;;;;14.52;9.48;;;;;;;;;;4916334;29;20112;-82
2021/11/18 09:13:50;;;;;;;14.43;9.60;;;;;;;;;;4906443;29;20032;-81
2021/11/18 09:16:17;;;;;;;24.40;10.73;;;;;;;;;;4904308;29;20372;-84
2021/11/18 09:18:43;;;;;;;20.65;10.32;;;;;;;;;;4913955;29;20121;-85
2021/11/18 09:21:10;;;;;;;16.92;9.23;;;;;;;;;;4924712;29;20036;-84
2021/11/18 09:23:39;;;;;;;13.32;8.13;;;;;;;;;;4940945;29;20042;-82
2021/11/18 09:26:06;;;;;;;16.58;10.10;;;;;;;;;;4941398;29;20023;-82
2021/11/18 09:28:32;;;;;;;17.33;9.52;;;;;;;;;;4941193;29;20032;-83
2021/11/18 09:31:00;;;;;;;16.45;10.27;;;;;;;;;;4940645;29;20111;-83
2021/11/18 09:33:27;;;;;;;16.13;10.15;;;;;;;;;;4932380;29;20062;-83
2021/11/18 09:35:55;;;;;;;14.63;9.27;;;;;;;;;;4923275;29;20455;-82
2021/11/18 09:38:23;;;;;;;16.50;9.60;;;;;;;;;;4922538;29;20028;-82
2021/11/18 09:40:52;;;;;;;16.27;10.50;;;;;;;;;;4928782;29;20513;-84
2021/11/18 09:43:36;;;;;;;14.00;10.27;;;;;;;;;;4941527;29;20075;-83
2021/11/18 09:46:21;;;;;;;15.77;9.93;;;;;;;;;;4941506;29;20112;-83
2021/11/18 09:48:47;;;;;;;14.82;10.60;;;;;;;;;;4925555;29;20024;-82
2021/11/18 09:51:39;;;;;;;14.10;9.30;;;;;;;;;;4922448;29;20044;-82
2021/11/18 09:54:16;;;;;;;19.00;11.20;;;;;;;;;;4937115;29;20038;-81
2021/11/18 09:56:50;;;;;;;14.05;9.05;;;;;;;;;;4941200;29;20074;-82
2021/11/18 09:59:16;;;;;;;14.23;9.43;;;;;;;;;;4942033;29;20457;-81
2021/11/18 10:01:53;;;;;;;14.60;11.05;;;;;;;;;;4939207;29;20047;-82
2021/11/18 10:04:37;;;;;;;14.40;9.60;;;;;;;;;;4902750;29;20043;-82
2021/11/18 10:07:08;;;;;;;14.02;9.43;;;;;;;;;;4912378;29;20051;-82
2021/11/18 10:09:37;;;;;;;12.95;8.63;;;;;;;;;;4922222;29;20079;-82
2021/11/18 10:12:06;;;;;;;13.80;9.00;;;;;;;;;;4921801;29;20058;-82
2021/11/18 10:14:46;;;;;;;14.43;9.20;;;;;;;;;;4922422;29;20031;-82
2021/11/18 10:17:16;;;;;;;18.75;9.88;;;;;;;;;;4922005;29;20059;-83
2021/11/18 10:19:43;;;;;;;15.48;10.73;;;;;;;;;;4920323;29;20610;-86
2021/11/18 10:22:12;;;;;;;13.18;9.45;;;;;;;;;;4922063;29;20036;-85
2021/11/18 10:24:40;;;;;;;10.85;7.80;;;;;;;;;;4922578;29;20039;-83
2021/11/18 10:27:10;;;;;;;12.20;8.30;;;;;;;;;;4920945;29;20044;-83
2021/11/18 10:29:37;;;;;;;10.68;7.35;;;;;;;;;;4922347;29;20426;-84
2021/11/18 10:32:09;;;;;;;12.52;6.63;;;;;;;;;;4921294;29;20021;-82
2021/11/18 10:34:52;;;;;;;12.45;7.82;;;;;;;;;;4923246;29;20024;-83
2021/11/18 10:37:18;;;;;;;;;;;;;;;;;;4922928;29;20432;-83
2021/11/18 10:39:50;;;;;;;11.60;6.97;;;;;;;;;;4922814;29;19914;-83
2021/11/18 10:42:19;;;;;;;10.07;7.43;;;;;;;;;;4920906;29;20107;-80
2021/11/18 10:45:04;;;;;;;9.80;6.78;;;;;;;;;;4941240;29;20023;-84
2021/11/18 10:47:59;;;;;;;10.15;6.97;;;;;;;;;;4925538;29;20512;-83
2021/11/18 10:50:34;;;;;;;11.23;8.15;;;;;;;;;;4922050;29;20053;-82
2021/11/18 10:53:03;;;;;;;11.77;7.85;;;;;;;;;;4927993;29;20425;-81
2021/11/18 10:55:37;;;;;;;10.68;7.60;;;;;;;;;;4940669;29;20047;-85
2021/11/18 10:58:13;;;;;;;9.45;5.78;;;;;;;;;;4931398;29;20024;-83
2021/11/18 11:00:40;;;;;;;9.60;6.85;;;;;;;;;;4920618;29;20028;-83
2021/11/18 11:03:22;;;;;;;11.90;6.90;;;;;;;;;;4919962;29;20386;-81
2021/11/18 11:05:49;;;;;;;9.13;6.97;;;;;;;;;;4920145;29;20035;-83
2021/11/18 11:08:22;;;;;;;11.35;6.88;;;;;;;;;;4920552;29;20036;-82
2021/11/18 11:10:51;;;;;;;9.70;7.40;;;;;;;;;;4914999;29;20034;-80
2021/11/18 11:13:20;;;;;;;12.77;7.78;;;;;;;;;;4919769;29;20063;-82
2021/11/18 11:16:05;;;;;;;11.02;7.38;;;;;;;;;;4920419;29;20055;-81
2021/11/18 11:18:37;;;;;;;10.15;6.97;;;;;;;;;;4920123;29;20447;-81
2021/11/18 11:21:19;;;;;;;11.03;7.60;;;;;;;;;;4918821;29;20487;-82
2021/11/18 11:23:57;;;;;;;8.43;6.22;;;;;;;;;;4918541;29;20020;-83
2021/11/18 11:26:43;;;;;;;8.68;6.57;;;;;;;;;;4918881;29;20493;-84
2021/11/18 11:29:24;;;;;;;15.70;7.60;;;;;;;;;;4920723;29;20112;-81
2021/11/18 11:31:54;;;;;;;9.40;7.28;;;;;;;;;;4918887;29;20035;-85
2021/11/18 11:34:41;;;;;;;9.13;6.28;;;;;;;;;;4920010;29;20031;-83
2021/11/18 11:37:26;;;;;;;8.10;5.43;;;;;;;;;;4920362;29;20490;-81
2021/11/18 11:39:54;;;;;;;7.97;5.45;;;;;;;;;;4920442;29;20028;-81
2021/11/18 11:42:38;;;;;;;9.48;5.90;;;;;;;;;;4921055;29;20032;-81
2021/11/18 11:45:07;;;;;;;9.82;6.38;;;;;;;;;;4921690;29;20478;-83
2021/11/18 11:47:33;;;;;;;10.63;8.70;;;;;;;;;;4915217;29;20151;-82
2021/11/18 11:50:16;;;;;;;11.98;9.10;;;;;;;;;;4916998;29;20028;-84
2021/11/18 11:52:56;;;;;;;12.05;8.75;;;;;;;;;;4921133;29;20039;-82
2021/11/18 11:55:25;;;;;;;12.95;8.55;;;;;;;;;;4921388;29;20051;-83
2021/11/18 11:58:10;;;;;;;12.30;8.50;;;;;;;;;;4925070;29;20059;-82
2021/11/18 12:00:46;;;;;;;15.43;8.75;;;;;;;;;;4898240;29;20039;-82
2021/11/18 12:03:31;;;;;;;12.55;8.10;;;;;;;;;;4912052;29;20040;-83
2021/11/18 12:06:06;;;;;;;18.00;8.43;;;;;;;;;;4918491;29;20060;-83
2021/11/18 12:08:35;;;;;;;12.48;7.85;;;;;;;;;;4920215;29;20028;-84
2021/11/18 12:11:08;;;;;;;12.82;8.40;;;;;;;;;;4919842;29;20479;-83
2021/11/18 12:13:36;;;;;;;7.65;5.32;;;;;;;;;;4917558;29;20016;-81
2021/11/18 12:16:19;;;;;;;7.85;4.75;;;;;;;;;;4919183;29;20122;-82
2021/11/18 12:18:45;;;;;;;5.68;2.70;;;;;;;;;;4908618;29;20031;-83
2021/11/18 12:21:12;;;;;;;4.82;2.25;;;;;;;;;;4919441;29;20039;-84
2021/11/18 12:23:57;;;;;;;10.98;3.35;;;;;;;;;;4918010;29;20112;-81
2021/11/18 12:26:23;;;;;;;5.68;2.28;;;;;;;;;;4918398;29;20444;-81
2021/11/18 12:29:09;;;;;;;8.75;4.10;;;;;;;;;;4917814;29;20043;-82
2021/11/18 12:31:35;;;;;;;5.03;2.60;;;;;;;;;;4871321;29;20483;-80
2021/11/18 12:34:04;;;;;;;5.70;3.10;;;;;;;;;;4917615;29;20032;-81
2021/11/18 12:36:49;;;;;;;5.57;2.80;;;;;;;;;;4918866;29;20040;-83
2021/11/18 12:39:35;;;;;;;10.80;3.28;;;;;;;;;;4917721;29;20020;-83
2021/11/18 12:42:19;;;;;;;5.82;2.50;;;;;;;;;;4918454;29;20039;-82
2021/11/18 12:45:11;;;;;;;5.38;2.90;;;;;;;;;;4913037;29;20036;-82
2021/11/18 12:47:49;;;;;;;5.87;2.87;;;;;;;;;;4890891;29;20282;-82
2021/11/18 12:50:15;;;;;;;7.30;3.15;;;;;;;;;;4918108;29;20371;-83
2021/11/18 12:53:01;;;;;;;5.32;2.90;;;;;;;;;;4918268;29;20072;-82
2021/11/18 12:55:38;;;;;;;6.18;3.22;;;;;;;;;;4923075;29;20028;-81
2021/11/18 12:58:23;;;;;;;5.78;3.15;;;;;;;;;;4919382;29;20095;-83
2021/11/18 13:00:50;;;;;;;5.80;2.70;;;;;;;;;;4899112;29;20399;-81
2021/11/18 13:03:36;;;;;;;5.78;2.88;;;;;;;;;;4919656;29;20028;-83
2021/11/18 13:06:04;;;;;;;7.05;3.20;;;;;;;;;;4909904;29;20066;-82
2021/11/18 13:08:42;;;;;;;5.75;3.10;;;;;;;;;;4912189;29;20502;-81
2021/11/18 13:11:28;;;;;;;5.75;2.90;;;;;;;;;;4912082;29;20040;-82
2021/11/18 13:14:13;;;;;;;6.03;2.50;;;;;;;;;;4870939;29;20123;-82
2021/11/18 13:16:48;;;;;;;6.55;2.60;;;;;;;;;;4916414;29;20509;-82
2021/11/18 13:19:17;;;;;;;6.72;2.70;;;;;;;;;;4921231;29;20071;-81
2021/11/18 13:21:43;;;;;;;5.68;2.50;;;;;;;;;;4923605;29;20032;-83
2021/11/18 13:24:09;;;;;;;4.88;2.50;;;;;;;;;;4924683;29;20035;-82
2021/11/18 13:26:37;;;;;;;6.05;2.75;;;;;;;;;;4920822;29;20028;-81
2021/11/18 13:29:03;;;;;;;7.63;3.10;;;;;;;;;;4915789;29;20111;-82
2021/11/18 13:31:36;;;;;;;6.55;2.60;;;;;;;;;;4920648;29;20059;-82
2021/11/18 13:34:20;;;;;;;8.80;3.15;;;;;;;;;;4912067;29;20499;-81
2021/11/18 13:36:57;;;;;;;7.20;2.85;;;;;;;;;;4921103;29;20028;-82
2021/11/18 13:39:25;;;;;;;7.53;2.80;;;;;;;;;;4920629;29;20044;-82
2021/11/18 13:41:55;;;;;;;7.40;2.88;;;;;;;;;;4918743;29;20040;-82
2021/11/18 13:44:30;;;;;;;5.10;2.70;;;;;;;;;;4926174;29;20414;-82
2021/11/18 13:47:03;;;;;;;5.88;2.72;;;;;;;;;;4923923;29;20499;-82
2021/11/18 13:49:29;;;;;;;6.00;2.67;;;;;;;;;;4921547;29;20435;-83
2021/11/18 13:51:59;;;;;;;5.47;2.50;;;;;;;;;;4911430;29;20044;-83
2021/11/18 13:54:31;;;;;;;5.57;2.55;;;;;;;;;;4917226;29;20028;-82
2021/11/18 13:56:57;;;;;;;6.17;2.90;;;;;;;;;;4921807;29;20379;-83
2021/11/18 13:59:28;;;;;;;6.68;3.00;;;;;;;;;;4918544;29;20427;-84
2021/11/18 14:02:11;;;;;;;5.68;3.05;;;;;;;;;;4920576;29;20122;-85
2021/11/18 14:04:37;;;;;;;;;;;;;;;;;;4917064;29;20395;-84
2021/11/18 14:07:04;;;;;;;7.75;3.03;;;;;;;;;;4905628;29;19915;-83
2021/11/18 14:09:37;;;;;;;7.03;2.78;;;;;;;;;;4924256;29;20052;-84
2021/11/18 14:12:27;;;;;;;6.05;3.03;;;;;;;;;;4920003;29;20063;-84
2021/11/18 14:15:12;;;;;;;6.75;3.53;;;;;;;;;;4900206;29;20037;-83
2021/11/18 14:17:47;;;;;;;5.93;2.97;;;;;;;;;;4918317;29;20043;-83
2021/11/18 14:20:23;;;;;;;6.78;3.88;;;;;;;;;;4919587;29;20448;-84
2021/11/18 14:22:50;;;;;;;7.00;3.40;;;;;;;;;;4908607;29;20041;-83
2021/11/18 14:25:33;;;;;;;6.53;3.33;;;;;;;;;;4912875;29;20111;-85
2021/11/18 14:28:02;;;;;;;7.97;3.80;;;;;;;;;;4917170;29;20024;-82
2021/11/18 14:30:34;;;;;;;5.95;2.78;;;;;;;;;;4912925;29;20032;-81
2021/11/18 14:33:11;;;;;;;5.68;3.35;;;;;;;;;;4911041;29;20036;-82
2021/11/18 14:35:39;;;;;;;5.43;2.60;;;;;;;;;;4928308;29;20116;-86
2021/11/18 14:38:11;;;;;;;6.38;3.40;;;;;;;;;;4906805;29;20043;-84
2021/11/18 14:40:54;;;;;;;9.98;5.53;;;;;;;;;;4920657;29;20043;-84
2021/11/18 14:43:26;;;;;;;9.10;6.22;;;;;;;;;;4921346;29;20031;-78
2021/11/18 14:46:10;;;;;;;11.75;6.93;;;;;;;;;;4911532;29;20055;-83